Main page
METAR-TAF:

METAR-TAF

Airports :

Parnaíba-Prefeito Dr. João Silva Filho International Airport

Parnaíba, Piauí, Brazil

latitude: 02-55S, longitude: 041-45W, elevation: 5 m

Current weather observation

The report was made 33 minutes ago, at 19:00 UTC
Wind 16 kt from the East/Northeast
Temperature 31°C
Humidity 46%
Pressure 1010 hPa
Visibility 10 km or more
Few clouds at a height of 2000 ft

METAR: SBPB 191900Z 07016KT 9999 FEW020 31/18 Q1010

Time: 16:33 (19:33 UTC)

Forecast

The report was made 4 hours and 3 minutes ago, at 15:30 UTC
Forecast valid from 19 at 18 UTC to 20 at 18 UTC
Wind 15 kt from the East
Visibility 10 km or more
Few clouds at a height of 2000 ft

TAF: SBPB 191530Z 1918/2018 08015KT 9999 FEW020 TN25/2008Z TX34/2015Z RMK PCH

Weather observations and forecasts of more than 4000 airports (METAR and TAF reports).

The available stations are represented by yellow and red dots on the map.

Hover mouse over dot to see the name of the station.

Then click to see weather observations and forecasts.

To change the map : click on the green buttons with a black cross to zoom in, on the green button with a dash to zoom out, or on the green arrows for adjacent maps.


METAR-TAF: